Annapolis, MD (21403)

1:18 PM EST on December 19, 2014 (GMT -0500)
Bay Ridge | Change Station
CLOSE
Current Station
Personal Weather Station
Location: Annapolis, MD
Elevation: 39 ft
Nearby Weather Stations

Elev 39 ft 38.94 °N, 76.46 °W | Updated 2 seconds ago

Overcast
Overcast
39.7 °F
Feels Like 37 °F
N
3.8
Wind Variable Wind from NW
Gusts 6.9 mph

Today
High -- | Low -- °F
--% Chance of Precip.
Yesterday
High -- | Low -- °F
Precip. -- in
7:20 AM 4:46 PM
Waning Crescent, 7% visible
Pressure 30.13 in
Visibility 10.0 miles
Clouds Overcast 3700 ft
Windchill 37 °F
Dew Point 13 °F
Humidity 33%
Rainfall 0.00 in
Snow Depth Not available.
UV 1 out of 12
Pollen .10 out of 12
Air Quality Not available.
Flu Activity Not available.
METAR KNAK 191754Z AUTO 31010KT 10SM OVC037 03/M04 A3012 RMK AO2 SLP203 T00331039 10033 20017 58013 $

More Conditions Fewer Conditions

Pressure 30.13 in
Visibility 10.0 miles
Clouds Overcast 3700 ft
Windchill 37 °F
Dew Point 13 °F
Humidity 33%
Rainfall 0.00 in
Snow Depth Not available.
UV 1 out of 12
Pollen .10 out of 12
Air Quality Not available.
Flu Activity Not available.
METAR KNAK 191754Z AUTO 31010KT 10SM OVC037 03/M04 A3012 RMK AO2 SLP203 T00331039 10033 20017 58013 $

More Conditions Fewer Conditions

10-Day Weather Forecast

Almanac

Astronomy

Dec. 19, 2014 Rise Set
Actual Time
Civil Twilight
Nautical Twilight
Astronomical Twilight
Moon
Length of Visible Light
Length of Day
Tomorrow will be .
, % of the Moon is Illuminated

Today's Extremes

State Highs State Lows

Community

WunderPhotos

Upload Photos

1,779,015 photos uploaded!

WunderBlogs® & News

Nearby

Air Quality

  Air Quality AQ Index Pollutant
Not available.

Snow Depth

Station Depth Elevation

Earthquake Activity

City Distance Mag. Time & Date
Minimum magnitude displayed is 2.5.

Coastal Water Temperatures

Place Temperature

Nearby Weather Stations